createdAt,value
2018-02-04T00:00:27.158Z,-0.49
2018-02-04T00:02:54.714Z,-0.50
2018-02-04T00:05:22.231Z,-0.48
2018-02-04T00:07:49.791Z,-0.50
2018-02-04T00:10:17.327Z,-0.47
2018-02-04T00:12:44.892Z,-0.43
2018-02-04T00:15:12.439Z,-0.49
2018-02-04T00:17:40.065Z,-0.42
2018-02-04T00:20:07.635Z,-0.42
2018-02-04T00:22:39.156Z,-0.41
2018-02-04T00:25:06.790Z,-0.42
2018-02-04T00:27:34.339Z,-0.43
2018-02-04T00:30:01.886Z,-0.44
2018-02-04T00:32:29.473Z,-0.46
2018-02-04T00:34:57.091Z,-0.34
2018-02-04T00:37:24.634Z,-0.30
2018-02-04T00:39:52.205Z,-0.33
2018-02-04T00:42:19.775Z,-0.35
2018-02-04T00:44:47.465Z,-0.30
2018-02-04T00:47:15.036Z,-0.34
2018-02-04T00:49:42.577Z,-0.29
2018-02-04T00:52:10.115Z,-0.26
2018-02-04T00:54:37.666Z,-0.24
2018-02-04T00:57:05.235Z,-0.23
2018-02-04T00:59:32.752Z,-0.24
2018-02-04T01:02:00.292Z,-0.24
2018-02-04T01:04:27.808Z,-0.27
2018-02-04T01:06:55.647Z,-0.34
2018-02-04T01:09:23.198Z,-0.34
2018-02-04T01:11:50.744Z,-0.35
2018-02-04T01:14:18.418Z,-0.30
2018-02-04T01:16:45.958Z,-0.22
2018-02-04T01:19:13.547Z,-0.27
2018-02-04T01:21:41.105Z,-0.34
2018-02-04T01:24:08.686Z,-0.29
2018-02-04T01:26:36.232Z,-0.30
2018-02-04T01:29:03.835Z,-0.25
2018-02-04T01:31:31.377Z,-0.26
2018-02-04T01:33:58.894Z,-0.30
2018-02-04T01:36:26.484Z,-0.33
2018-02-04T01:38:54.046Z,-0.29
2018-02-04T01:41:22.426Z,-0.26
2018-02-04T01:43:49.970Z,-0.22
2018-02-04T01:46:17.471Z,-0.27
2018-02-04T01:48:45.026Z,-0.20
2018-02-04T01:51:12.534Z,-0.15
2018-02-04T01:53:40.071Z,-0.22
2018-02-04T01:56:07.645Z,-0.19
2018-02-04T01:58:35.205Z,-0.25
2018-02-04T02:01:02.789Z,-0.23
2018-02-04T02:03:30.345Z,-0.28
2018-02-04T02:05:57.888Z,-0.24
2018-02-04T02:08:25.470Z,-0.19
2018-02-04T02:10:53.046Z,-0.19
2018-02-04T02:13:20.582Z,-0.22
2018-02-04T02:15:48.179Z,-0.19
2018-02-04T02:18:15.737Z,-0.14
2018-02-04T02:20:43.356Z,-0.14
2018-02-04T02:23:10.892Z,-0.09
2018-02-04T02:25:38.422Z,-0.10
2018-02-04T02:28:05.961Z,-0.13
2018-02-04T02:30:33.483Z,-0.07
2018-02-04T02:33:01.108Z,-0.12
2018-02-04T02:35:28.619Z,-0.15
2018-02-04T02:37:56.176Z,-0.13
2018-02-04T02:40:23.701Z,-0.20
2018-02-04T02:42:51.254Z,-0.15
2018-02-04T02:45:18.833Z,-0.09
2018-02-04T02:47:46.366Z,-0.16
2018-02-04T02:50:13.918Z,-0.14
2018-02-04T02:52:41.497Z,-0.12
2018-02-04T02:55:09.005Z,-0.15
2018-02-04T02:57:36.592Z,-0.15
2018-02-04T03:00:04.185Z,-0.12
2018-02-04T03:02:31.774Z,-0.12
2018-02-04T03:04:59.336Z,-0.17
2018-02-04T03:07:26.867Z,-0.10
2018-02-04T03:09:54.852Z,-0.06
2018-02-04T03:12:22.378Z,-0.07
2018-02-04T03:14:49.925Z,-0.03
2018-02-04T03:17:17.604Z,-0.04
2018-02-04T03:19:45.500Z,-0.07
2018-02-04T03:22:13.006Z,-0.07
2018-02-04T03:24:40.537Z,-0.07
2018-02-04T03:27:08.111Z,-0.03
2018-02-04T03:29:35.662Z,0.01
2018-02-04T03:32:03.173Z,0.02
2018-02-04T03:34:30.694Z,0.05
2018-02-04T03:36:58.657Z,0.05
2018-02-04T03:39:26.178Z,0.03
2018-02-04T03:41:53.716Z,0.11
2018-02-04T03:44:21.311Z,0.04
2018-02-04T03:46:49.216Z,-0.09
2018-02-04T03:49:16.770Z,0.02
2018-02-04T03:51:44.304Z,0.06
2018-02-04T03:54:11.850Z,0.22
2018-02-04T03:56:39.394Z,0.23
2018-02-04T03:59:06.957Z,0.22
2018-02-04T04:01:34.555Z,0.19
2018-02-04T04:04:02.094Z,0.16
2018-02-04T04:06:29.623Z,0.13
2018-02-04T04:08:57.142Z,0.10
2018-02-04T04:11:24.656Z,0.08
2018-02-04T04:13:52.240Z,0.06
2018-02-04T04:16:19.789Z,0.07
2018-02-04T04:18:47.333Z,0.08
2018-02-04T04:21:14.893Z,0.04
2018-02-04T04:23:42.518Z,0.02
2018-02-04T04:26:10.042Z,0.02
2018-02-04T04:28:37.964Z,-0.10
2018-02-04T04:31:05.505Z,-0.02
2018-02-04T04:33:33.020Z,-0.02
2018-02-04T04:36:00.584Z,-0.07
2018-02-04T04:38:28.131Z,-0.03
2018-02-04T04:40:55.666Z,-0.04
2018-02-04T04:43:23.190Z,-0.14
2018-02-04T04:45:50.743Z,-0.14
2018-02-04T04:48:18.341Z,-0.08
2018-02-04T04:50:45.855Z,-0.18
2018-02-04T04:53:13.372Z,-0.30
2018-02-04T04:55:40.954Z,-0.22
2018-02-04T04:58:08.486Z,-0.40
2018-02-04T05:00:36.057Z,-0.26
2018-02-04T05:03:03.576Z,-0.21
2018-02-04T05:05:31.146Z,-0.40
2018-02-04T05:07:58.668Z,-0.53
2018-02-04T05:10:26.193Z,-0.50
2018-02-04T05:12:54.067Z,-0.34
2018-02-04T05:15:21.613Z,-0.39
2018-02-04T05:17:49.165Z,-0.40
2018-02-04T05:20:16.731Z,-0.55
2018-02-04T05:22:44.304Z,-0.52
2018-02-04T05:25:11.880Z,-0.53
2018-02-04T05:27:40.135Z,-0.58
2018-02-04T05:30:07.667Z,-0.59
2018-02-04T05:32:35.182Z,-0.61
2018-02-04T05:35:03.166Z,-0.57
2018-02-04T05:37:30.706Z,-0.56
2018-02-04T05:39:58.257Z,-0.61
2018-02-04T05:42:25.827Z,-0.47
2018-02-04T05:44:53.337Z,-0.60
2018-02-04T05:47:20.861Z,-0.32
2018-02-04T05:49:49.451Z,-0.50
2018-02-04T05:52:17.000Z,-0.34
2018-02-04T05:54:44.626Z,-0.36
2018-02-04T05:57:12.222Z,-0.36
2018-02-04T05:59:39.759Z,-0.28
2018-02-04T06:02:07.295Z,-0.50
2018-02-04T06:04:34.958Z,-0.50
2018-02-04T06:07:02.479Z,-0.45
2018-02-04T06:09:30.036Z,-0.47
2018-02-04T06:11:57.543Z,-0.56
2018-02-04T06:14:25.092Z,-0.59
2018-02-04T06:16:52.656Z,-0.34
2018-02-04T06:19:20.167Z,-0.40
2018-02-04T06:21:47.737Z,-0.34
2018-02-04T06:24:15.292Z,-0.27
2018-02-04T06:26:42.913Z,-0.46
2018-02-04T06:29:10.418Z,-0.37
2018-02-04T06:31:37.955Z,-0.50
2018-02-04T06:34:05.503Z,-0.56
2018-02-04T06:36:33.010Z,-0.49
2018-02-04T06:39:00.549Z,-0.34
2018-02-04T06:41:28.071Z,-0.38
2018-02-04T06:43:56.016Z,-0.31
2018-02-04T06:46:23.522Z,-0.38
2018-02-04T06:48:51.049Z,-0.29
2018-02-04T06:51:18.887Z,-0.31
2018-02-04T06:53:46.460Z,-0.49
2018-02-04T06:56:13.986Z,-0.28
2018-02-04T06:58:41.540Z,-0.21
2018-02-04T07:01:09.087Z,-0.17
2018-02-04T07:03:36.638Z,-0.17
2018-02-04T07:06:04.214Z,-0.26
2018-02-04T07:08:31.770Z,-0.19
2018-02-04T07:10:59.280Z,-0.25
2018-02-04T07:13:26.847Z,-0.27
2018-02-04T07:15:54.391Z,-0.19
2018-02-04T07:18:21.940Z,-0.18
2018-02-04T07:20:49.819Z,-0.26
2018-02-04T07:23:17.346Z,-0.24
2018-02-04T07:25:44.886Z,-0.28
2018-02-04T07:28:12.453Z,-0.37
2018-02-04T07:30:40.047Z,-0.35
2018-02-04T07:33:07.560Z,-0.31
2018-02-04T07:35:35.105Z,-0.26
2018-02-04T07:38:02.674Z,-0.23
2018-02-04T07:40:30.235Z,-0.20
2018-02-04T07:42:57.942Z,-0.22
2018-02-04T07:45:25.467Z,-0.15
2018-02-04T07:47:52.971Z,-0.07
2018-02-04T07:50:20.523Z,-0.03
2018-02-04T07:52:48.445Z,0.02
2018-02-04T07:55:15.958Z,0.02
2018-02-04T07:57:43.536Z,0.04
2018-02-04T08:00:11.081Z,0.05
2018-02-04T08:02:38.602Z,0.12
2018-02-04T08:05:06.148Z,0.10
2018-02-04T08:07:33.656Z,0.04
2018-02-04T08:10:01.272Z,0.09
2018-02-04T08:12:28.774Z,0.17
2018-02-04T08:14:56.338Z,0.23
2018-02-04T08:17:23.900Z,0.27
2018-02-04T08:19:51.495Z,0.31
2018-02-04T08:22:19.033Z,0.27
2018-02-04T08:24:46.563Z,0.26
2018-02-04T08:27:14.194Z,0.20
2018-02-04T08:29:41.707Z,0.17
2018-02-04T08:32:09.301Z,0.24
2018-02-04T08:34:36.844Z,0.40
2018-02-04T08:37:04.367Z,0.44
2018-02-04T08:39:31.954Z,0.47
2018-02-04T08:41:59.520Z,0.45
2018-02-04T08:44:27.042Z,0.57
2018-02-04T08:46:54.606Z,0.64
2018-02-04T08:49:22.157Z,0.68
2018-02-04T08:51:49.733Z,0.75
2018-02-04T08:54:17.325Z,0.75
2018-02-04T08:56:44.892Z,0.66
2018-02-04T08:59:12.412Z,0.58
2018-02-04T09:01:40.049Z,0.66
2018-02-04T09:04:07.568Z,0.76
2018-02-04T09:06:35.205Z,0.66
2018-02-04T09:09:02.762Z,0.65
2018-02-04T09:11:30.306Z,0.66
2018-02-04T09:13:57.912Z,0.76
2018-02-04T09:16:25.437Z,0.78
2018-02-04T09:18:52.940Z,0.85
2018-02-04T09:21:20.834Z,0.96
2018-02-04T09:23:48.341Z,0.96
2018-02-04T09:26:15.848Z,0.89
2018-02-04T09:28:43.417Z,1.08
2018-02-04T09:31:11.079Z,1.22
2018-02-04T09:33:38.602Z,1.13
2018-02-04T09:36:06.308Z,1.21
2018-02-04T09:38:33.861Z,0.96
2018-02-04T09:41:01.414Z,0.78
2018-02-04T09:43:28.919Z,0.73
2018-02-04T09:45:56.481Z,0.85
2018-02-04T09:48:23.999Z,1.02
2018-02-04T09:50:51.552Z,0.73
2018-02-04T09:53:19.079Z,0.70
2018-02-04T09:55:46.616Z,0.87
2018-02-04T09:58:14.162Z,0.98
2018-02-04T10:00:41.675Z,0.83
2018-02-04T10:03:09.292Z,0.73
2018-02-04T10:05:36.850Z,0.79
2018-02-04T10:08:04.470Z,0.72
2018-02-04T10:10:32.036Z,0.69
2018-02-04T10:12:59.592Z,0.79
2018-02-04T10:15:27.122Z,0.57
2018-02-04T10:17:54.725Z,0.70
2018-02-04T10:20:22.252Z,0.66
2018-02-04T10:22:49.779Z,0.82
2018-02-04T10:25:17.326Z,0.78
2018-02-04T10:27:45.061Z,0.94
2018-02-04T10:30:12.633Z,0.89
2018-02-04T10:32:40.162Z,0.81
2018-02-04T10:35:07.726Z,0.97
2018-02-04T10:37:35.279Z,0.89
2018-02-04T10:40:02.865Z,0.92
2018-02-04T10:42:30.416Z,1.06
2018-02-04T10:44:57.959Z,1.25
2018-02-04T10:47:25.478Z,1.27
2018-02-04T10:49:53.036Z,1.12
2018-02-04T10:52:20.546Z,1.19
2018-02-04T10:54:48.125Z,1.27
2018-02-04T10:57:15.681Z,1.17
2018-02-04T10:59:43.268Z,1.23
2018-02-04T11:02:10.808Z,1.37
2018-02-04T11:04:38.329Z,1.42
2018-02-04T11:07:05.898Z,1.50
2018-02-04T11:09:33.394Z,1.69
2018-02-04T11:12:00.958Z,1.40
2018-02-04T11:14:28.551Z,1.56
2018-02-04T11:16:56.103Z,1.58
2018-02-04T11:19:23.688Z,1.61
2018-02-04T11:21:51.187Z,1.65
2018-02-04T11:24:18.716Z,1.77
2018-02-04T11:26:46.599Z,1.67
2018-02-04T11:29:14.170Z,1.62
2018-02-04T11:31:41.703Z,1.49
2018-02-04T11:34:09.294Z,1.46
2018-02-04T11:36:36.864Z,1.53
2018-02-04T11:39:04.411Z,1.73
2018-02-04T11:41:31.972Z,2.11
2018-02-04T11:43:59.552Z,2.25
2018-02-04T11:46:27.062Z,2.16
2018-02-04T11:48:54.642Z,2.33
2018-02-04T11:51:22.142Z,2.12
2018-02-04T11:53:49.678Z,2.24
2018-02-04T11:56:17.198Z,2.55
2018-02-04T11:58:44.772Z,2.59
2018-02-04T12:01:12.333Z,2.30
2018-02-04T12:03:39.886Z,2.24
2018-02-04T12:06:07.406Z,2.11
2018-02-04T12:08:34.944Z,1.90
2018-02-04T12:11:02.513Z,1.87
2018-02-04T12:13:30.057Z,1.84
2018-02-04T12:15:57.729Z,1.86
2018-02-04T12:18:25.281Z,1.91
2018-02-04T12:20:52.820Z,1.89
2018-02-04T12:23:20.384Z,1.74
2018-02-04T12:25:47.914Z,1.68
2018-02-04T12:28:15.477Z,1.73
2018-02-04T12:30:43.010Z,1.50
2018-02-04T12:33:10.540Z,1.48
2018-02-04T12:35:38.462Z,1.41
2018-02-04T12:38:05.999Z,1.36
2018-02-04T12:40:33.507Z,1.53
2018-02-04T12:43:01.093Z,1.64
2018-02-04T12:45:28.623Z,1.71
2018-02-04T12:47:56.165Z,1.70
2018-02-04T12:50:24.088Z,1.99
2018-02-04T12:52:51.596Z,1.92
2018-02-04T12:55:19.144Z,1.90
2018-02-04T12:57:46.695Z,1.90
2018-02-04T13:00:14.603Z,2.00
2018-02-04T13:02:42.159Z,2.06
2018-02-04T13:05:09.720Z,2.27
2018-02-04T13:07:37.310Z,2.52
2018-02-04T13:10:04.836Z,2.11
2018-02-04T13:12:32.362Z,2.01
2018-02-04T13:14:59.891Z,1.98
2018-02-04T13:17:27.434Z,1.90
2018-02-04T13:19:54.959Z,2.11
2018-02-04T13:22:22.475Z,2.23
2018-02-04T13:24:50.037Z,2.20
2018-02-04T13:27:17.556Z,2.12
2018-02-04T13:29:45.148Z,1.90
2018-02-04T13:32:12.668Z,2.10
2018-02-04T13:34:40.174Z,2.07
2018-02-04T13:37:08.102Z,2.05
2018-02-04T13:39:35.647Z,2.14
2018-02-04T13:42:03.178Z,2.22
2018-02-04T13:44:30.743Z,2.40
2018-02-04T13:46:58.290Z,2.42
2018-02-04T13:49:25.910Z,2.49
2018-02-04T13:51:53.482Z,2.36
2018-02-04T13:54:21.009Z,1.97
2018-02-04T13:56:48.576Z,1.92
2018-02-04T13:59:16.157Z,1.79
2018-02-04T14:01:43.685Z,1.99
2018-02-04T14:04:11.252Z,1.97
2018-02-04T14:06:39.184Z,1.89
2018-02-04T14:09:06.824Z,1.59
2018-02-04T14:11:34.390Z,1.30
2018-02-04T14:14:02.291Z,1.47
2018-02-04T14:16:29.818Z,1.59
2018-02-04T14:18:57.393Z,1.50
2018-02-04T14:21:25.309Z,1.33
2018-02-04T14:23:52.851Z,1.34
2018-02-04T14:26:20.355Z,1.62
2018-02-04T14:28:48.258Z,1.68
2018-02-04T14:31:15.808Z,1.81
2018-02-04T14:33:43.392Z,1.91
2018-02-04T14:36:11.281Z,1.91
2018-02-04T14:38:38.826Z,2.00
2018-02-04T14:41:06.354Z,1.70
2018-02-04T14:43:33.924Z,1.53
2018-02-04T14:46:01.455Z,1.41
2018-02-04T14:48:29.010Z,1.08
2018-02-04T14:50:56.922Z,1.13
2018-02-04T14:53:24.436Z,1.01
2018-02-04T14:55:51.947Z,1.11
2018-02-04T14:58:19.554Z,1.15
2018-02-04T15:00:47.154Z,1.17
2018-02-04T15:03:14.745Z,1.07
2018-02-04T15:05:42.292Z,0.97
2018-02-04T15:08:09.836Z,0.91
2018-02-04T15:10:37.691Z,0.94
2018-02-04T15:13:05.442Z,0.91
2018-02-04T15:15:32.987Z,0.85
2018-02-04T15:18:00.524Z,0.93
2018-02-04T15:20:28.394Z,0.89
2018-02-04T15:22:55.981Z,0.85
2018-02-04T15:25:23.491Z,0.89
2018-02-04T15:27:51.207Z,0.82
2018-02-04T15:30:19.542Z,0.91
2018-02-04T15:32:47.094Z,0.88
2018-02-04T15:35:14.652Z,0.82
2018-02-04T15:37:42.835Z,0.83
2018-02-04T15:40:10.382Z,0.86
2018-02-04T15:42:37.928Z,0.87
2018-02-04T15:45:05.819Z,0.86
2018-02-04T15:47:33.368Z,0.93
2018-02-04T15:50:00.901Z,1.01
2018-02-04T15:52:28.576Z,0.94
2018-02-04T15:54:56.114Z,0.93
2018-02-04T15:57:23.669Z,0.96
2018-02-04T15:59:51.219Z,0.92
2018-02-04T16:02:18.823Z,0.91
2018-02-04T16:04:46.351Z,0.92
2018-02-04T16:07:13.997Z,0.91
2018-02-04T16:09:41.608Z,0.93
2018-02-04T16:12:09.165Z,0.98
2018-02-04T16:14:36.745Z,0.98
2018-02-04T16:17:04.619Z,0.99
2018-02-04T16:19:32.160Z,0.97
2018-02-04T16:21:59.721Z,1.00
2018-02-04T16:24:27.297Z,1.07
2018-02-04T16:26:54.859Z,1.04
2018-02-04T16:29:22.800Z,1.01
2018-02-04T16:31:50.339Z,1.02
2018-02-04T16:34:17.857Z,1.07
2018-02-04T16:36:45.423Z,1.01
2018-02-04T16:39:12.963Z,1.08
2018-02-04T16:41:40.857Z,1.06
2018-02-04T16:44:08.412Z,1.08
2018-02-04T16:46:35.985Z,1.13
2018-02-04T16:49:03.940Z,1.15
2018-02-04T16:51:31.478Z,1.16
2018-02-04T16:53:59.068Z,1.22
2018-02-04T16:56:34.484Z,1.20
2018-02-04T16:59:02.033Z,1.18
2018-02-04T17:01:29.580Z,1.19
2018-02-04T17:03:57.120Z,1.22
2018-02-04T17:06:24.679Z,1.23
2018-02-04T17:08:52.245Z,1.26
2018-02-04T17:11:19.893Z,1.19
2018-02-04T17:13:47.432Z,1.26
2018-02-04T17:16:15.275Z,1.24
2018-02-04T17:18:42.943Z,1.25
2018-02-04T17:21:10.475Z,1.31
2018-02-04T17:23:38.100Z,1.32
2018-02-04T17:26:05.635Z,1.35
2018-02-04T17:28:33.189Z,1.44
2018-02-04T17:31:01.130Z,1.38
2018-02-04T17:33:28.701Z,1.30
2018-02-04T17:35:56.256Z,1.37
2018-02-04T17:38:23.814Z,1.37
2018-02-04T17:40:51.494Z,1.43
2018-02-04T17:43:19.184Z,1.42
2018-02-04T17:45:46.748Z,1.41
2018-02-04T17:48:14.346Z,1.45
2018-02-04T17:50:41.921Z,1.39
2018-02-04T17:53:09.494Z,1.40
2018-02-04T17:55:37.117Z,1.42
2018-02-04T17:58:04.738Z,1.37
2018-02-04T18:00:32.264Z,1.47
2018-02-04T18:02:59.827Z,1.44
2018-02-04T18:05:27.366Z,1.43
2018-02-04T18:07:55.367Z,1.41
2018-02-04T18:10:22.902Z,1.39
2018-02-04T18:12:50.477Z,1.37
2018-02-04T18:15:18.068Z,1.37
2018-02-04T18:17:45.611Z,1.38
2018-02-04T18:20:13.565Z,1.42
2018-02-04T18:22:41.127Z,1.40
2018-02-04T18:25:08.686Z,1.36
2018-02-04T18:27:36.232Z,1.37
2018-02-04T18:30:04.004Z,1.39
2018-02-04T18:32:31.600Z,1.41
2018-02-04T18:34:59.172Z,1.37
2018-02-04T18:37:26.725Z,1.40
2018-02-04T18:39:54.709Z,1.44
2018-02-04T18:42:22.372Z,1.45
2018-02-04T18:44:50.046Z,1.43
2018-02-04T18:47:17.725Z,1.52
2018-02-04T18:49:45.271Z,1.45
2018-02-04T18:52:13.081Z,1.42
2018-02-04T18:54:41.266Z,1.43
2018-02-04T18:57:08.854Z,1.47
2018-02-04T18:59:36.396Z,1.41
2018-02-04T19:02:03.936Z,1.41
2018-02-04T19:04:31.871Z,1.32
2018-02-04T19:06:59.438Z,1.51
2018-02-04T19:09:26.982Z,1.47
2018-02-04T19:11:54.582Z,1.48
2018-02-04T19:14:22.165Z,1.45
2018-02-04T19:16:49.832Z,1.43
2018-02-04T19:19:17.760Z,1.45
2018-02-04T19:21:45.328Z,1.53
2018-02-04T19:24:13.022Z,1.45
2018-02-04T19:26:40.671Z,1.50
2018-02-04T19:29:08.251Z,1.53
2018-02-04T19:31:36.236Z,1.46
2018-02-04T19:34:04.079Z,1.51
2018-02-04T19:36:31.854Z,1.49
2018-02-04T19:38:59.938Z,1.50
2018-02-04T19:41:27.667Z,1.45
2018-02-04T19:43:55.489Z,1.45
2018-02-04T19:46:23.430Z,1.36
2018-02-04T19:48:51.147Z,1.39
2018-02-04T19:51:19.029Z,1.47
2018-02-04T19:53:46.868Z,1.45
2018-02-04T19:56:14.446Z,1.35
2018-02-04T19:58:41.980Z,1.42
2018-02-04T20:01:09.834Z,1.41
2018-02-04T20:03:37.371Z,1.39
2018-02-04T20:06:04.930Z,1.37
2018-02-04T20:08:32.762Z,1.40
2018-02-04T20:11:00.637Z,1.42
2018-02-04T20:13:28.518Z,1.38
2018-02-04T20:15:56.368Z,1.42
2018-02-04T20:18:24.177Z,1.41
2018-02-04T20:20:51.833Z,1.41
2018-02-04T20:23:19.358Z,1.46
2018-02-04T20:25:46.905Z,1.48
2018-02-04T20:28:14.925Z,1.45
2018-02-04T20:30:42.513Z,1.43
2018-02-04T20:33:20.949Z,1.48
2018-02-04T20:35:48.580Z,1.46
2018-02-04T20:38:16.106Z,1.40
2018-02-04T20:40:43.634Z,1.43
2018-02-04T20:43:11.180Z,1.45
2018-02-04T20:45:38.746Z,1.44
2018-02-04T20:48:06.326Z,1.41
2018-02-04T20:50:33.917Z,1.33
2018-02-04T20:53:01.482Z,1.39
2018-02-04T20:55:29.034Z,1.37
2018-02-04T20:57:56.663Z,1.41
2018-02-04T21:00:24.179Z,1.45
2018-02-04T21:02:51.729Z,1.36
2018-02-04T21:05:19.301Z,1.36
2018-02-04T21:07:46.810Z,1.34
2018-02-04T21:10:14.417Z,1.39
2018-02-04T21:12:42.154Z,1.36
2018-02-04T21:15:09.676Z,1.32
2018-02-04T21:17:37.215Z,1.31
2018-02-04T21:20:04.859Z,1.39
2018-02-04T21:22:32.734Z,1.33
2018-02-04T21:25:00.279Z,1.33
2018-02-04T21:27:27.787Z,1.35
2018-02-04T21:29:55.353Z,1.35
2018-02-04T21:32:22.939Z,1.30
2018-02-04T21:34:50.483Z,1.26
2018-02-04T21:37:18.399Z,1.27
2018-02-04T21:39:45.967Z,1.30
2018-02-04T21:42:13.522Z,1.36
2018-02-04T21:44:41.084Z,1.32
2018-02-04T21:47:08.629Z,1.28
2018-02-04T21:49:36.181Z,1.28
2018-02-04T21:52:03.725Z,1.32
2018-02-04T21:54:31.277Z,1.30
2018-02-04T21:56:58.826Z,1.28
2018-02-04T21:59:26.391Z,1.29
2018-02-04T22:01:53.961Z,1.28
2018-02-04T22:04:21.955Z,1.29
2018-02-04T22:06:49.493Z,1.31
2018-02-04T22:09:17.015Z,1.34
2018-02-04T22:11:44.623Z,1.25
2018-02-04T22:14:12.163Z,1.32
2018-02-04T22:16:39.722Z,1.33
2018-02-04T22:19:07.381Z,1.29
2018-02-04T22:21:34.935Z,1.40
2018-02-04T22:24:02.471Z,1.32
2018-02-04T22:26:30.023Z,1.31
2018-02-04T22:28:57.576Z,1.31
2018-02-04T22:31:25.496Z,1.34
2018-02-04T22:33:53.015Z,1.33
2018-02-04T22:36:20.539Z,1.29
2018-02-04T22:38:48.480Z,1.30
2018-02-04T22:41:16.029Z,1.29
2018-02-04T22:43:43.587Z,1.29
2018-02-04T22:46:11.501Z,1.25
2018-02-04T22:48:39.068Z,1.22
2018-02-04T22:51:06.603Z,1.16
2018-02-04T22:53:34.156Z,1.20
2018-02-04T22:56:01.722Z,1.21
2018-02-04T22:58:29.309Z,1.21
2018-02-04T23:00:56.890Z,1.24
2018-02-04T23:03:24.422Z,1.23
2018-02-04T23:05:52.397Z,1.23
2018-02-04T23:08:19.937Z,1.29
2018-02-04T23:10:47.492Z,1.32
2018-02-04T23:13:15.059Z,1.34
2018-02-04T23:15:42.578Z,1.28
2018-02-04T23:18:10.125Z,1.35
2018-02-04T23:20:37.724Z,1.34
2018-02-04T23:23:05.288Z,1.39
2018-02-04T23:25:32.856Z,1.28
2018-02-04T23:28:00.395Z,1.36
2018-02-04T23:30:28.318Z,1.37
2018-02-04T23:32:55.873Z,1.33
2018-02-04T23:35:23.429Z,1.32
2018-02-04T23:37:51.007Z,1.34
2018-02-04T23:40:18.560Z,1.35
2018-02-04T23:42:46.089Z,1.32
2018-02-04T23:45:13.637Z,1.37
2018-02-04T23:47:41.147Z,1.37
2018-02-04T23:50:08.731Z,1.32
2018-02-04T23:52:36.333Z,1.30
2018-02-04T23:55:03.882Z,1.40
2018-02-04T23:57:31.423Z,1.34
2018-02-04T23:59:59.019Z,1.36
